Time;durP1;ratioP1;P1;durP2;ratioP2;P2;SDS_P1;SDS_P2;PMS_P1;PMS_P2;Temp;Humidity;BMP_temperature;BMP_pressure;BME280_temperature;BME280_humidity;BME280_pressure;Samples;Min_cycle;Max_cycle;Signal;HPM_P1;HPM_P2
2023/09/29 00:01:29;;;;;;;4.72;4.32;;;;;;;12.25;100.00;96611.47;6342153;22;20026;-64
2023/09/29 00:03:55;;;;;;;5.63;5.03;;;;;;;12.26;100.00;96604.41;6341581;22;20490;-64
2023/09/29 00:06:20;;;;;;;5.20;4.80;;;;;;;12.26;100.00;96602.56;6341039;22;19995;-64
2023/09/29 00:08:45;;;;;;;5.22;4.82;;;;;;;12.23;100.00;96602.03;6340954;22;19991;-64
2023/09/29 00:11:12;;;;;;;5.03;4.70;;;;;;;12.21;100.00;96607.41;6341551;22;20443;-64
2023/09/29 00:13:38;;;;;;;5.25;4.72;;;;;;;12.17;100.00;96601.59;6340973;22;20014;-64
2023/09/29 00:16:03;;;;;;;5.88;5.03;;;;;;;12.17;100.00;96603.38;6341781;22;20387;-64
2023/09/29 00:18:30;;;;;;;5.28;4.82;;;;;;;12.15;100.00;96597.38;6341172;22;20003;-64
2023/09/29 00:20:55;;;;;;;5.80;5.18;;;;;;;12.11;100.00;96596.78;6341548;22;20001;-64
2023/09/29 00:23:21;;;;;;;5.22;4.72;;;;;;;12.10;100.00;96589.84;6341379;22;20418;-64
2023/09/29 00:25:46;;;;;;;4.95;4.55;;;;;;;12.07;100.00;96592.75;6341126;22;19999;-64
2023/09/29 00:28:12;;;;;;;6.78;5.10;;;;;;;12.07;100.00;96594.56;6340708;22;20022;-64
2023/09/29 00:30:37;;;;;;;5.38;4.88;;;;;;;12.11;100.00;96594.16;6341672;22;19999;-64
2023/09/29 00:33:03;;;;;;;5.85;4.97;;;;;;;12.13;100.00;96591.41;6340507;22;19999;-64
2023/09/29 00:35:28;;;;;;;5.05;4.60;;;;;;;12.16;100.00;96591.13;6341206;22;20003;-64
2023/09/29 00:37:55;;;;;;;5.25;4.85;;;;;;;12.20;100.00;96592.53;6312844;22;20033;-64
2023/09/29 00:40:21;;;;;;;5.13;4.63;;;;;;;12.21;100.00;96593.41;6340892;22;20014;-64
2023/09/29 00:42:48;;;;;;;5.88;4.63;;;;;;;12.19;100.00;96590.88;6314013;22;20577;-64
2023/09/29 00:45:16;;;;;;;7.55;4.90;;;;;;;12.17;100.00;96598.09;6340459;22;20014;-64
2023/09/29 00:47:43;;;;;;;5.38;4.88;;;;;;;12.10;100.00;96603.03;6339114;22;20077;-64
2023/09/29 00:50:10;;;;;;;5.05;4.65;;;;;;;12.10;100.00;96594.31;6340297;22;20009;-64
2023/09/29 00:52:40;;;;;;;7.00;5.25;;;;;;;12.09;100.00;96590.81;6340801;22;20062;-64
2023/09/29 00:55:11;;;;;;;5.97;5.43;;;;;;;12.01;100.00;96580.91;6341131;22;20009;-64
2023/09/29 00:57:39;;;;;;;5.30;4.82;;;;;;;12.01;100.00;96577.44;6340388;22;20069;-64
2023/09/29 01:00:13;;;;;;;6.47;5.00;;;;;;;11.97;100.00;96576.81;6341203;22;20010;-64
2023/09/29 01:02:40;;;;;;;9.95;5.05;;;;;;;11.92;100.00;96563.19;6341269;22;19999;-64
2023/09/29 01:05:05;;;;;;;5.40;4.40;;;;;;;11.87;100.00;96573.28;6340486;22;19999;-64
2023/09/29 01:07:31;;;;;;;8.70;5.25;;;;;;;11.84;100.00;96570.91;6340863;22;19997;-64
2023/09/29 01:09:57;;;;;;;5.10;4.70;;;;;;;11.83;100.00;96566.59;6340100;22;20002;-64
2023/09/29 01:12:28;;;;;;;5.45;5.05;;;;;;;11.84;100.00;96574.38;6340586;22;20041;-63
2023/09/29 01:14:54;;;;;;;5.45;5.05;;;;;;;11.84;100.00;96565.63;6339978;22;20742;-64
2023/09/29 01:17:20;;;;;;;8.70;5.60;;;;;;;11.84;100.00;96565.63;6313743;22;20003;-64
2023/09/29 01:19:45;;;;;;;5.32;4.93;;;;;;;11.79;100.00;96565.16;6340588;22;20071;-64
2023/09/29 01:22:11;;;;;;;5.55;5.05;;;;;;;11.72;100.00;96560.41;6341031;22;19999;-64
2023/09/29 01:24:36;;;;;;;7.15;5.00;;;;;;;11.74;100.00;96555.84;6340530;22;19999;-63
2023/09/29 01:27:02;;;;;;;5.68;5.10;;;;;;;11.72;100.00;96562.22;6340024;22;20054;-64
2023/09/29 01:29:27;;;;;;;7.53;4.95;;;;;;;11.71;100.00;96566.66;6340694;22;19999;-64
2023/09/29 01:31:52;;;;;;;5.32;4.85;;;;;;;11.70;100.00;96567.63;6339587;22;20010;-64
2023/09/29 01:34:18;;;;;;;5.43;4.93;;;;;;;11.66;100.00;96560.94;6340795;22;20010;-64
2023/09/29 01:36:44;;;;;;;6.18;4.90;;;;;;;11.66;100.00;96558.28;6340362;22;20036;-63
2023/09/29 01:39:11;;;;;;;5.57;5.07;;;;;;;11.69;100.00;96552.75;6313228;22;20007;-64
2023/09/29 01:41:36;;;;;;;6.15;4.95;;;;;;;11.73;100.00;96550.69;6340115;22;19998;-64
2023/09/29 01:44:02;;;;;;;5.72;5.20;;;;;;;11.70;100.00;96545.66;6313235;22;20048;-64
2023/09/29 01:46:29;;;;;;;5.43;5.00;;;;;;;11.68;100.00;96544.94;6340420;22;20005;-64
2023/09/29 01:48:54;;;;;;;7.10;5.28;;;;;;;11.63;100.00;96544.50;6339799;22;20014;-64
2023/09/29 01:51:20;;;;;;;9.02;5.15;;;;;;;11.53;100.00;96549.69;6338833;22;19995;-64
2023/09/29 01:53:46;;;;;;;6.35;4.88;;;;;;;11.49;100.00;96538.56;6340210;22;20044;-64
2023/09/29 01:56:12;;;;;;;5.40;4.90;;;;;;;11.51;100.00;96543.72;6340721;22;20001;-64
2023/09/29 01:58:37;;;;;;;6.30;5.60;;;;;;;11.52;100.00;96542.75;6340149;22;20094;-64
2023/09/29 02:01:02;;;;;;;5.63;5.20;;;;;;;11.49;100.00;96535.94;6340294;22;20006;-64
2023/09/29 02:03:28;;;;;;;7.35;5.53;;;;;;;11.52;100.00;96532.22;6312194;22;19999;-64
2023/09/29 02:05:53;;;;;;;7.93;4.88;;;;;;;11.54;100.00;96535.56;6341042;22;20092;-64
2023/09/29 02:08:19;;;;;;;5.38;4.57;;;;;;;11.52;100.00;96532.22;6312414;22;20007;-63
2023/09/29 02:10:50;;;;;;;8.13;4.88;;;;;;;11.53;100.00;96536.53;6340353;22;20003;-64
2023/09/29 02:13:16;;;;;;;5.95;5.47;;;;;;;11.58;100.00;96536.97;6340066;22;20081;-63
2023/09/29 02:15:41;;;;;;;5.65;5.07;;;;;;;11.59;100.00;96531.56;6340843;22;20496;-63
2023/09/29 02:18:09;;;;;;;6.78;5.43;;;;;;;11.57;100.00;96528.25;6340357;22;20007;-64
2023/09/29 02:20:36;;;;;;;4.95;4.53;;;;;;;11.56;100.00;96538.91;6339892;22;19998;-64
2023/09/29 02:23:02;;;;;;;5.65;5.05;;;;;;;11.57;100.00;96530.03;6340293;22;20095;-64
2023/09/29 02:25:29;;;;;;;5.57;5.13;;;;;;;11.56;100.00;96523.06;6340060;22;19995;-64
2023/09/29 02:27:59;;;;;;;5.72;5.22;;;;;;;11.54;100.00;96528.50;6339992;22;20058;-64
2023/09/29 02:30:26;;;;;;;5.72;5.22;;;;;;;11.50;100.00;96531.50;6340220;22;20009;-64
2023/09/29 02:32:54;;;;;;;5.10;4.63;;;;;;;11.49;100.00;96527.19;6312603;22;19995;-64
2023/09/29 02:35:20;;;;;;;6.32;5.00;;;;;;;11.46;100.00;96531.75;6339947;22;19999;-64
2023/09/29 02:37:46;;;;;;;5.45;4.95;;;;;;;11.42;100.00;96532.13;6339496;22;19999;-64
2023/09/29 02:40:12;;;;;;;5.85;5.18;;;;;;;11.46;100.00;96533.56;6339832;22;20074;-64
2023/09/29 02:42:38;;;;;;;7.22;5.60;;;;;;;11.46;100.00;96539.69;6340068;22;19995;-64
2023/09/29 02:45:05;;;;;;;6.70;5.35;;;;;;;11.45;100.00;96531.88;6339724;22;20030;-64
2023/09/29 02:47:31;;;;;;;7.00;5.68;;;;;;;11.45;100.00;96538.00;6339955;22;19995;-64
2023/09/29 02:49:57;;;;;;;5.60;5.10;;;;;;;11.42;100.00;96540.91;6340168;22;20328;-64
2023/09/29 02:52:24;;;;;;;6.47;5.88;;;;;;;11.37;100.00;96535.13;6340022;22;20011;-64
2023/09/29 02:54:49;;;;;;;5.20;4.80;;;;;;;11.34;100.00;96543.31;6340705;22;19999;-64
2023/09/29 02:57:16;;;;;;;5.63;5.13;;;;;;;11.31;100.00;96531.22;6340123;22;19999;-64
2023/09/29 02:59:41;;;;;;;7.47;5.40;;;;;;;11.29;100.00;96532.31;6340474;22;20014;-63
2023/09/29 03:02:06;;;;;;;6.03;5.15;;;;;;;11.27;100.00;96529.81;6311805;22;19999;-64
2023/09/29 03:04:32;;;;;;;10.02;8.70;;;;;;;11.29;100.00;96527.03;6340104;22;19999;-64
2023/09/29 03:06:58;;;;;;;8.80;7.95;;;;;;;11.26;100.00;96527.28;6339812;22;19999;-63
2023/09/29 03:09:25;;;;;;;6.28;5.68;;;;;;;11.25;100.00;96525.63;6339502;22;20378;-64
2023/09/29 03:11:51;;;;;;;6.30;5.43;;;;;;;11.24;100.00;96527.41;6311821;22;19998;-64
2023/09/29 03:14:17;;;;;;;5.45;4.95;;;;;;;11.19;100.00;96526.94;6338289;22;20098;-64
2023/09/29 03:16:43;;;;;;;5.78;4.90;;;;;;;11.16;100.00;96535.97;6340026;22;19999;-64
2023/09/29 03:19:09;;;;;;;9.25;5.60;;;;;;;11.18;100.00;96533.19;6339667;22;20009;-64
2023/09/29 03:21:34;;;;;;;6.18;5.47;;;;;;;11.17;100.00;96526.25;6339754;22;20003;-63
2023/09/29 03:24:01;;;;;;;10.10;6.07;;;;;;;11.21;100.00;96535.56;6340175;22;20044;-64
2023/09/29 03:26:27;;;;;;;6.65;5.45;;;;;;;11.21;100.00;96522.38;6311917;22;19998;-63
2023/09/29 03:28:55;;;;;;;6.32;4.80;;;;;;;11.22;100.00;96537.25;6339711;22;19995;-64
2023/09/29 03:31:24;;;;;;;5.95;5.35;;;;;;;11.22;100.00;96542.50;6312100;22;19998;-64
2023/09/29 03:33:49;;;;;;;7.30;6.70;;;;;;;11.20;100.00;96533.06;6340470;22;20018;-64
2023/09/29 03:36:15;;;;;;;10.57;9.48;;;;;;;11.15;100.00;96547.44;6339696;22;20006;-64
2023/09/29 03:38:45;;;;;;;7.30;6.70;;;;;;;11.15;100.00;96539.53;6339840;22;20569;-64
2023/09/29 03:41:10;;;;;;;6.68;5.70;;;;;;;11.12;100.00;96539.78;6340113;22;19999;-64
2023/09/29 03:43:36;;;;;;;6.10;5.50;;;;;;;11.12;100.00;96536.31;6339431;22;20006;-63
2023/09/29 03:46:01;;;;;;;6.13;5.63;;;;;;;11.11;100.00;96539.94;6339428;22;19999;-64
2023/09/29 03:48:28;;;;;;;6.65;6.05;;;;;;;11.07;100.00;96539.31;6339992;22;19998;-64
2023/09/29 03:50:54;;;;;;;6.95;5.53;;;;;;;11.06;100.00;96540.28;6339668;22;20308;-64
2023/09/29 03:53:21;;;;;;;6.50;5.35;;;;;;;11.08;100.00;96538.38;6311912;22;20009;-64
2023/09/29 03:55:46;;;;;;;6.68;5.57;;;;;;;11.06;100.00;96539.47;6339348;22;19999;-63
2023/09/29 03:58:14;;;;;;;6.32;5.80;;;;;;;11.03;100.00;96533.47;6339545;22;19999;-64
2023/09/29 04:00:39;;;;;;;7.93;5.57;;;;;;;11.00;100.00;96525.00;6339549;22;20002;-64
2023/09/29 04:03:06;;;;;;;5.90;5.43;;;;;;;10.99;100.00;96533.84;6339747;22;20381;-64
2023/09/29 04:05:32;;;;;;;6.10;5.35;;;;;;;11.00;100.00;96527.63;6338637;22;20430;-64
2023/09/29 04:07:57;;;;;;;6.15;5.55;;;;;;;10.98;100.00;96527.72;6339561;22;19998;-63
2023/09/29 04:10:23;;;;;;;6.40;5.18;;;;;;;11.01;100.00;96524.03;6339777;22;20024;-64
2023/09/29 04:12:49;;;;;;;5.95;5.45;;;;;;;11.00;100.00;96520.53;6341215;22;20630;-64
2023/09/29 04:15:16;;;;;;;7.30;5.63;;;;;;;11.03;100.00;96522.09;6341727;22;20005;-64
2023/09/29 04:17:41;;;;;;;8.18;6.47;;;;;;;11.00;100.00;96517.09;6341772;22;20009;-64
2023/09/29 04:20:08;;;;;;;6.97;6.28;;;;;;;11.03;100.00;96527.38;6341587;22;19995;-64
2023/09/29 04:22:34;;;;;;;6.05;5.45;;;;;;;11.03;100.00;96522.09;6341818;22;20488;-64
2023/09/29 04:25:00;;;;;;;7.85;5.38;;;;;;;11.02;100.00;96525.69;6341338;22;20040;-63
2023/09/29 04:27:26;;;;;;;6.00;5.47;;;;;;;10.99;100.00;96525.94;6341865;22;20022;-63
2023/09/29 04:29:52;;;;;;;6.70;5.30;;;;;;;10.97;100.00;96526.06;6341008;22;19999;-63
2023/09/29 04:32:20;;;;;;;6.13;5.50;;;;;;;10.99;100.00;96516.22;6340494;22;19999;-63
2023/09/29 04:34:46;;;;;;;5.78;5.22;;;;;;;10.95;100.00;96514.00;6339979;22;20005;-63
2023/09/29 04:37:11;;;;;;;5.80;5.22;;;;;;;10.96;100.00;96516.47;6340553;22;20022;-64
2023/09/29 04:39:37;;;;;;;5.68;5.18;;;;;;;10.98;100.00;96519.00;6340716;22;19998;-64
2023/09/29 04:42:04;;;;;;;7.38;5.80;;;;;;;11.00;100.00;96517.09;6341203;22;20002;-64
2023/09/29 04:44:30;;;;;;;7.85;7.15;;;;;;;11.01;100.00;96514.31;6341393;22;19999;-64
2023/09/29 04:46:55;;;;;;;6.80;6.30;;;;;;;11.00;100.00;96514.44;6341158;22;20005;-64
2023/09/29 04:49:20;;;;;;;6.88;5.40;;;;;;;10.96;100.00;96520.94;6340750;22;20010;-64
2023/09/29 04:51:46;;;;;;;5.93;5.40;;;;;;;10.92;100.00;96520.34;6341447;22;20029;-63
2023/09/29 04:54:11;;;;;;;6.03;4.70;;;;;;;10.89;100.00;96528.47;6341778;22;20446;-64
2023/09/29 04:56:37;;;;;;;9.18;5.47;;;;;;;10.86;100.00;96520.84;6341556;22;20007;-63
2023/09/29 04:59:02;;;;;;;5.75;5.22;;;;;;;10.82;100.00;96527.28;6341088;22;20527;-64
2023/09/29 05:01:28;;;;;;;5.72;4.75;;;;;;;10.82;100.00;96528.13;6341266;22;20010;-64
2023/09/29 05:03:53;;;;;;;5.63;5.13;;;;;;;10.84;100.00;96530.66;6313418;22;20056;-63
2023/09/29 05:06:19;;;;;;;5.55;5.15;;;;;;;10.84;100.00;96534.13;6341510;22;20055;-64
2023/09/29 05:08:44;;;;;;;6.22;4.93;;;;;;;10.79;100.00;96544.19;6313121;22;20030;-64
2023/09/29 05:11:24;;;;;;;5.90;5.32;;;;;;;10.79;100.00;96551.25;6340824;22;20009;-64
2023/09/29 05:13:50;;;;;;;5.88;5.03;;;;;;;10.79;100.00;96554.72;6341319;22;20011;-64
2023/09/29 05:16:16;;;;;;;7.15;5.40;;;;;;;10.82;100.00;96558.88;6340710;22;20002;-64
2023/09/29 05:18:42;;;;;;;6.97;5.07;;;;;;;10.79;100.00;96557.34;6339358;22;20408;-64
2023/09/29 05:21:09;;;;;;;6.80;5.22;;;;;;;10.81;100.00;96554.59;6340509;22;20002;-64
2023/09/29 05:23:35;;;;;;;6.05;5.20;;;;;;;10.84;100.00;96564.91;6339151;22;20408;-63
2023/09/29 05:26:04;;;;;;;16.30;5.95;;;;;;;10.89;100.00;96552.19;6339965;22;20022;-64
2023/09/29 05:28:30;;;;;;;10.48;5.13;;;;;;;10.88;100.00;96559.25;6339814;22;20446;-64
2023/09/29 05:30:56;;;;;;;5.47;4.93;;;;;;;10.87;100.00;96548.84;6340327;22;20344;-64
2023/09/29 05:33:21;;;;;;;7.03;5.75;;;;;;;10.90;100.00;96553.88;6339952;22;20395;-63
2023/09/29 05:35:47;;;;;;;6.00;5.45;;;;;;;10.92;100.00;96557.22;6340076;22;20003;-63
2023/09/29 05:38:12;;;;;;;6.30;5.28;;;;;;;10.96;100.00;96552.53;6339757;22;20127;-64
2023/09/29 05:40:41;;;;;;;6.90;5.40;;;;;;;10.96;100.00;96561.28;6340403;22;20082;-63
2023/09/29 05:43:09;;;;;;;8.18;5.05;;;;;;;10.98;100.00;96558.53;6340992;22;20473;-64
2023/09/29 05:45:38;;;;;;;7.60;5.05;;;;;;;10.94;100.00;96557.94;6339847;22;19994;-64
2023/09/29 05:48:04;;;;;;;7.93;5.43;;;;;;;10.94;100.00;96559.72;6311102;22;19991;-65
2023/09/29 05:50:29;;;;;;;8.27;5.53;;;;;;;10.96;100.00;96557.81;6339569;22;19994;-63
2023/09/29 05:52:56;;;;;;;11.07;5.60;;;;;;;10.99;100.00;96568.09;6337668;22;20481;-64
2023/09/29 05:55:22;;;;;;;7.25;5.00;;;;;;;10.99;100.00;96568.09;6338526;22;20438;-63
2023/09/29 05:57:47;;;;;;;6.40;5.38;;;;;;;10.97;100.00;96564.75;6337848;22;20090;-64
2023/09/29 06:00:13;;;;;;;8.57;5.45;;;;;;;10.97;100.00;96580.56;6337237;22;20427;-64
2023/09/29 06:02:42;;;;;;;8.57;5.10;;;;;;;10.94;100.00;96565.81;6335648;22;20061;-64
2023/09/29 06:05:07;;;;;;;6.50;5.03;;;;;;;10.99;100.00;96573.38;6338436;22;20621;-64
2023/09/29 06:07:33;;;;;;;5.88;5.43;;;;;;;11.06;100.00;96579.81;6339298;22;20062;-64
2023/09/29 06:10:00;;;;;;;6.10;5.50;;;;;;;11.12;100.00;96579.31;6338630;22;19998;-64
2023/09/29 06:12:25;;;;;;;5.75;5.15;;;;;;;11.16;100.00;96579.91;6336586;22;20006;-64
2023/09/29 06:14:51;;;;;;;6.00;5.22;;;;;;;11.16;100.00;96595.72;6337940;22;20042;-64
2023/09/29 06:17:16;;;;;;;8.10;5.22;;;;;;;11.12;100.00;96596.94;6339054;22;20051;-64
2023/09/29 06:19:41;;;;;;;6.15;5.43;;;;;;;11.14;100.00;96585.28;6338760;22;20618;-64
2023/09/29 06:22:07;;;;;;;6.80;5.28;;;;;;;11.17;100.00;96592.97;6338329;22;20026;-64
2023/09/29 06:24:33;;;;;;;6.32;5.30;;;;;;;11.21;100.00;96600.63;6338286;22;19995;-63
2023/09/29 06:26:58;;;;;;;9.10;5.85;;;;;;;11.22;100.00;96603.13;6335970;22;20012;-65
2023/09/29 06:29:24;;;;;;;6.47;5.88;;;;;;;11.30;100.00;96599.88;6338055;22;20066;-65
2023/09/29 06:31:49;;;;;;;8.68;5.75;;;;;;;11.36;100.00;96602.00;6310320;22;20026;-65
2023/09/29 06:34:15;;;;;;;9.05;6.28;;;;;;;11.41;100.00;96599.88;6339470;22;19998;-65
2023/09/29 06:36:40;;;;;;;7.95;5.65;;;;;;;11.49;100.00;96606.31;6338538;22;20002;-64
2023/09/29 06:39:06;;;;;;;9.60;6.13;;;;;;;11.57;100.00;96609.13;6338651;22;20042;-65
2023/09/29 06:41:31;;;;;;;8.63;6.05;;;;;;;11.65;100.00;96612.00;6340259;22;20021;-64
2023/09/29 06:43:56;;;;;;;10.18;6.18;;;;;;;11.78;100.00;96616.25;6340279;22;20003;-64
2023/09/29 06:46:22;;;;;;;10.85;5.82;;;;;;;11.83;100.00;96629.91;6311779;22;20685;-64
2023/09/29 06:48:47;;;;;;;8.68;5.57;;;;;;;11.86;100.00;96634.94;6340535;22;20032;-64
2023/09/29 06:51:14;;;;;;;8.60;5.22;;;;;;;11.90;100.00;96641.63;6340818;22;20002;-64
2023/09/29 06:53:39;;;;;;;12.15;5.22;;;;;;;12.02;100.00;96645.91;6340370;22;19995;-64
2023/09/29 06:56:05;;;;;;;7.25;4.95;;;;;;;12.09;100.00;96648.88;6340393;22;19999;-64
2023/09/29 06:58:30;;;;;;;5.43;4.72;;;;;;;12.17;100.00;96650.88;6340443;22;20045;-64
2023/09/29 07:00:56;;;;;;;5.75;5.18;;;;;;;12.24;100.00;96665.22;6312977;22;20083;-64
2023/09/29 07:03:23;;;;;;;14.48;5.18;;;;;;;12.31;100.00;96665.56;6340565;22;20002;-63
2023/09/29 07:05:49;;;;;;;8.20;4.97;;;;;;;12.36;100.00;96670.47;6340605;22;20006;-64
2023/09/29 07:08:15;;;;;;;6.20;4.70;;;;;;;12.38;100.00;96679.94;6340373;22;19991;-63
2023/09/29 07:10:42;;;;;;;6.15;4.70;;;;;;;12.41;100.00;96686.75;6340608;22;20007;-63
2023/09/29 07:13:07;;;;;;;6.25;5.03;;;;;;;12.40;100.00;96691.22;6340173;22;20015;-63
2023/09/29 07:15:32;;;;;;;5.97;4.60;;;;;;;12.41;100.00;96692.03;6340436;22;20078;-65
2023/09/29 07:17:58;;;;;;;6.22;4.53;;;;;;;12.44;100.00;96700.56;6340517;22;19999;-64
2023/09/29 07:20:24;;;;;;;6.03;4.25;;;;;;;12.48;100.00;96705.56;6340696;22;20030;-64
2023/09/29 07:22:51;;;;;;;6.65;4.53;;;;;;;12.61;100.00;96708.88;6339938;22;20017;-64
2023/09/29 07:25:18;;;;;;;6.13;4.43;;;;;;;12.84;100.00;96696.31;6340507;22;20060;-64
2023/09/29 07:27:44;;;;;;;25.15;5.63;;;;;;;13.11;100.00;96710.75;6339956;22;19995;-64
2023/09/29 07:30:10;;;;;;;14.82;5.95;;;;;;;13.37;100.00;96709.47;6340641;22;20051;-64
2023/09/29 07:32:38;;;;;;;12.93;5.05;;;;;;;13.59;100.00;96717.22;6340554;22;20003;-64
2023/09/29 07:35:07;;;;;;;9.90;4.60;;;;;;;13.76;100.00;96730.78;6340779;22;20062;-64
2023/09/29 07:37:33;;;;;;;8.18;4.15;;;;;;;13.95;100.00;96739.72;6340586;22;20007;-64
2023/09/29 07:39:58;;;;;;;9.13;4.72;;;;;;;14.05;100.00;96756.44;6339924;22;20317;-64
2023/09/29 07:42:23;;;;;;;9.13;4.75;;;;;;;14.03;100.00;96764.50;6339604;22;20507;-65
2023/09/29 07:44:49;;;;;;;10.85;5.22;;;;;;;13.97;100.00;96775.66;6340430;22;20072;-65
2023/09/29 07:47:14;;;;;;;9.88;4.82;;;;;;;13.92;100.00;96783.19;6341042;22;20030;-65
2023/09/29 07:49:40;;;;;;;4.78;4.35;;;;;;;13.88;100.00;96798.50;6339137;22;19999;-65
2023/09/29 07:52:09;;;;;;;6.80;4.82;;;;;;;13.88;100.00;96805.59;6341324;22;19999;-65
2023/09/29 07:54:34;;;;;;;6.07;4.50;;;;;;;13.87;100.00;96809.22;6341903;22;20492;-65
2023/09/29 07:57:01;;;;;;;6.53;4.88;;;;;;;13.89;100.00;96813.41;6342239;22;19999;-65
2023/09/29 07:59:26;;;;;;;7.95;4.78;;;;;;;13.90;100.00;96814.25;6341903;22;20092;-65
2023/09/29 08:01:52;;;;;;;4.80;4.18;;;;;;;13.92;100.00;96808.81;6341949;22;20022;-65
2023/09/29 08:04:18;;;;;;;4.35;3.85;;;;;;;13.91;100.00;96813.28;6342135;22;20005;-65
2023/09/29 08:06:44;;;;;;;4.22;3.83;;;;;;;13.96;100.00;96816.34;6341292;22;20009;-65
2023/09/29 08:09:12;;;;;;;7.78;3.92;;;;;;;13.99;100.00;96816.06;6313615;22;19995;-65
2023/09/29 08:11:39;;;;;;;4.22;3.80;;;;;;;13.99;100.00;96818.72;6341453;22;20005;-65
2023/09/29 08:14:04;;;;;;;3.78;3.40;;;;;;;14.03;100.00;96814.00;6341312;22;20479;-65
2023/09/29 08:16:30;;;;;;;4.03;3.55;;;;;;;14.11;100.00;96831.84;6341947;22;20003;-65
2023/09/29 08:18:55;;;;;;;4.40;3.95;;;;;;;14.19;100.00;96824.06;6340986;22;20002;-64
2023/09/29 08:21:21;;;;;;;3.97;3.58;;;;;;;14.29;100.00;96819.63;6342042;22;20013;-65
2023/09/29 08:23:46;;;;;;;4.15;3.75;;;;;;;14.39;100.00;96810.84;6341105;22;20010;-65
2023/09/29 08:26:12;;;;;;;4.25;3.47;;;;;;;14.47;100.00;96809.19;6287867;22;20025;-65
2023/09/29 08:28:38;;;;;;;3.40;3.20;;;;;;;14.60;100.00;96813.38;6340959;22;20077;-65
2023/09/29 08:31:15;;;;;;;3.45;3.10;;;;;;;14.73;100.00;96791.91;6341087;22;20034;-65
2023/09/29 08:33:42;;;;;;;3.72;3.40;;;;;;;14.90;100.00;96807.06;6341461;22;19995;-65
2023/09/29 08:36:07;;;;;;;4.75;3.70;;;;;;;15.05;100.00;96796.03;6341373;22;20057;-65
2023/09/29 08:38:33;;;;;;;3.58;3.28;;;;;;;15.23;100.00;96808.56;6341247;22;19999;-65
2023/09/29 08:41:01;;;;;;;4.00;3.70;;;;;;;15.38;100.00;96806.28;6341365;22;20014;-65
2023/09/29 08:43:28;;;;;;;6.82;3.40;;;;;;;15.50;100.00;96823.72;6341980;22;20050;-65
2023/09/29 08:45:58;;;;;;;3.97;3.58;;;;;;;15.61;100.00;96796.97;6341195;22;19995;-65
2023/09/29 08:48:26;;;;;;;3.90;3.60;;;;;;;15.82;100.00;96795.06;6313690;22;20023;-65
2023/09/29 08:50:55;;;;;;;4.45;3.55;;;;;;;16.01;100.00;96794.16;6341090;22;20003;-65
2023/09/29 08:53:25;;;;;;;4.30;3.70;;;;;;;16.15;100.00;96809.59;6340850;22;19998;-65
2023/09/29 08:55:56;;;;;;;4.93;3.50;;;;;;;16.24;100.00;96818.47;6341256;22;19995;-65
2023/09/29 08:58:23;;;;;;;4.55;4.15;;;;;;;16.30;100.00;96825.84;6340271;22;20007;-65
2023/09/29 09:00:50;;;;;;;3.90;3.38;;;;;;;16.40;100.00;96827.59;6340573;22;19998;-65
2023/09/29 09:03:16;;;;;;;3.80;3.50;;;;;;;16.50;100.00;96825.72;6341396;22;20052;-65
2023/09/29 09:05:41;;;;;;;3.72;3.45;;;;;;;16.58;100.00;96819.66;6340961;22;20002;-65
2023/09/29 09:08:07;;;;;;;5.63;3.80;;;;;;;16.76;100.00;96801.00;6341188;22;19999;-64
2023/09/29 09:10:34;;;;;;;4.15;3.72;;;;;;;16.89;100.00;96782.81;6313358;22;20344;-65
2023/09/29 09:13:01;;;;;;;3.90;3.45;;;;;;;16.95;100.00;96789.34;6339755;22;20534;-65
2023/09/29 09:15:26;;;;;;;4.90;4.13;;;;;;;16.99;100.00;96766.78;6313388;22;20002;-65
2023/09/29 09:17:52;;;;;;;4.00;3.65;;;;;;;17.14;100.00;96764.41;6340868;22;20336;-65
2023/09/29 09:20:18;;;;;;;9.05;4.15;;;;;;;17.28;100.00;96784.28;6340800;22;20003;-65
2023/09/29 09:22:54;;;;;;;4.50;3.88;;;;;;;17.29;100.00;96793.94;6341284;22;20097;-65
2023/09/29 09:25:34;;;;;;;4.40;3.63;;;;;;;17.31;100.00;96799.94;6341042;22;20074;-66
2023/09/29 09:28:00;;;;;;;3.90;3.42;;;;;;;17.30;100.00;96792.09;6341245;22;20055;-65
2023/09/29 09:30:25;;;;;;;4.03;3.70;;;;;;;17.36;100.00;96807.44;6313244;22;20431;-65
2023/09/29 09:32:51;;;;;;;4.95;3.50;;;;;;;17.45;100.00;96787.88;6340344;22;20380;-65
2023/09/29 09:35:27;;;;;;;5.47;3.38;;;;;;;17.55;100.00;96782.41;6341066;22;20001;-65
2023/09/29 09:37:54;;;;;;;4.00;3.33;;;;;;;17.61;100.00;96767.66;6340857;22;20009;-65
2023/09/29 09:40:20;;;;;;;4.25;3.85;;;;;;;17.77;100.00;96758.88;6312383;22;20049;-65
2023/09/29 09:42:46;;;;;;;4.45;3.60;;;;;;;17.90;100.00;96761.94;6340657;22;19995;-65
2023/09/29 09:45:13;;;;;;;3.90;3.47;;;;;;;18.03;100.00;96755.31;6341145;22;20006;-65
2023/09/29 09:47:40;;;;;;;3.53;3.20;;;;;;;18.17;100.00;96719.19;6340628;22;19998;-65
2023/09/29 09:50:09;;;;;;;3.85;3.55;;;;;;;18.25;100.00;96695.25;6339249;22;20052;-65
2023/09/29 09:52:35;;;;;;;3.60;3.40;;;;;;;18.31;100.00;96694.56;6340175;22;20048;-65
2023/09/29 09:55:15;;;;;;;3.85;3.40;;;;;;;18.40;100.00;96681.22;6340050;22;19999;-65
2023/09/29 09:57:45;;;;;;;3.78;3.42;;;;;;;18.47;100.00;96696.41;6340237;22;20003;-65
2023/09/29 10:00:14;;;;;;;4.53;3.00;;;;;;;18.67;100.00;96725.38;6340600;22;20010;-65
2023/09/29 10:02:46;;;;;;;3.90;3.50;;;;;;;18.83;100.00;96724.53;6340126;22;20033;-66
2023/09/29 10:05:23;;;;;;;3.78;3.40;;;;;;;18.83;100.00;96721.84;6341065;22;20009;-66
2023/09/29 10:07:50;;;;;;;3.67;3.38;;;;;;;18.82;100.00;96725.53;6340594;22;19991;-65
2023/09/29 10:10:33;;;;;;;3.45;3.15;;;;;;;18.84;100.00;96736.88;6340355;22;20002;-66
2023/09/29 10:13:00;;;;;;;3.58;3.28;;;;;;;18.92;100.00;96728.03;6340209;22;20015;-65
2023/09/29 10:15:29;;;;;;;3.38;3.17;;;;;;;19.05;100.00;96732.88;6340257;22;20408;-65
2023/09/29 10:18:21;;;;;;;4.70;3.40;;;;;;;19.21;100.00;96705.28;6340012;22;20470;-66
2023/09/29 10:20:58;;;;;;;4.50;3.30;;;;;;;19.40;100.00;96709.41;6333609;22;19998;-65
2023/09/29 10:23:25;;;;;;;3.35;3.10;;;;;;;19.56;100.00;96687.13;6340276;22;20029;-65
2023/09/29 10:26:02;;;;;;;5.78;3.58;;;;;;;19.67;100.00;96690.41;6340190;22;20009;-65
2023/09/29 10:28:35;;;;;;;3.67;3.40;;;;;;;19.72;100.00;96686.22;6339675;22;19990;-65
2023/09/29 10:31:13;;;;;;;4.05;3.63;;;;;;;19.81;100.00;96700.38;6340104;22;20003;-65
2023/09/29 10:33:54;;;;;;;4.53;3.33;;;;;;;19.87;100.00;96717.53;6340108;22;19999;-65
2023/09/29 10:36:23;;;;;;;5.13;3.50;;;;;;;19.94;100.00;96736.41;6340177;22;20009;-66
2023/09/29 10:38:49;;;;;;;3.80;3.50;;;;;;;20.11;100.00;96719.25;6339592;22;20082;-66
2023/09/29 10:41:15;;;;;;;3.92;3.63;;;;;;;20.28;100.00;96701.28;6339162;22;19998;-65
2023/09/29 10:43:50;;;;;;;4.70;3.15;;;;;;;20.41;100.00;96673.06;6340349;22;19998;-65
2023/09/29 10:46:17;;;;;;;7.70;3.30;;;;;;;20.48;100.00;96682.06;6339856;22;20587;-65
2023/09/29 10:48:44;;;;;;;3.83;3.30;;;;;;;20.60;100.00;96695.84;6339356;22;20048;-66
2023/09/29 10:51:10;;;;;;;4.22;3.85;;;;;;;20.73;100.00;96661.25;6339553;22;20472;-65
2023/09/29 10:53:36;;;;;;;3.63;3.33;;;;;;;20.85;100.00;96645.59;6339746;22;20063;-65
2023/09/29 10:56:03;;;;;;;3.85;3.38;;;;;;;20.91;100.00;96645.91;6339918;22;20003;-65
2023/09/29 10:58:36;;;;;;;3.85;3.42;;;;;;;21.01;100.00;96647.28;6339934;22;19999;-65
2023/09/29 11:01:02;;;;;;;4.35;3.50;;;;;;;21.15;100.00;96645.63;6340194;22;20003;-65
2023/09/29 11:03:28;;;;;;;6.18;3.83;;;;;;;21.24;100.00;96645.50;6312324;22;20002;-65
2023/09/29 11:05:55;;;;;;;8.32;3.38;;;;;;;21.43;100.00;96630.69;6339576;22;20009;-65
2023/09/29 11:08:33;;;;;;;4.38;3.33;;;;;;;21.54;100.00;96634.75;6338441;22;19995;-65
2023/09/29 11:11:00;;;;;;;3.58;3.30;;;;;;;21.58;100.00;96644.91;6339487;22;20003;-65
2023/09/29 11:13:27;;;;;;;4.20;3.47;;;;;;;21.66;100.00;96640.47;6339978;22;20023;-65
2023/09/29 11:15:54;;;;;;;4.80;4.18;;;;;;;21.70;100.00;96642.59;6339999;22;19998;-65
2023/09/29 11:18:26;;;;;;;3.90;3.50;;;;;;;21.77;100.00;96647.19;6340218;22;20009;-65
2023/09/29 11:20:55;;;;;;;3.95;3.40;;;;;;;21.86;100.00;96654.91;6339333;22;19998;-65
2023/09/29 11:23:21;;;;;;;3.30;3.10;;;;;;;22.09;100.00;96667.31;6340247;22;19995;-65